Langley Air Force Base
KLFI : now visible

Airfield :











YOU CAN JOIN US ON...

 
LOGIN :

Register | Disclaimer

   EN    FR    IT 

 









Legend :    VFR   Marginal VFR   IFR   Intensive IFR   Very Intensive IFR
Visi :
Ceiling :
>= 8 km
>= 3000ft
5 to 8 km
1000 to 3000 ft
1500m to 5 km
500 to 1000 ft
800 to 1500m
200 to 500 ft
< 800m
< 200 ft
Symbols :   Thunderstorms  Fog  Heavy snow  Heavy precipitations  Wind > 20 kt







- Airport Elevation : 11 ft


KLFI - Langley Air Force Base

CURRENT METAR :
  • 191356Z 24006KT 9SM SCT150 29/25 A2998 RMK AO2A SLP158 T02850247 $

EXPIRED METARs :
  • 191256Z 23006KT 10SM BKN150 27/24 A2997 RMK AO2A SLP155 T02670243 $
  • 191156Z 24005KT 10SM SCT140 BKN160 26/24 A2996 RMK AO2A SLP152 T02630243 10269 20249 52010 $

TAF AMD TAF KLFI
Valid from the 19 at 11:00 until the 20 at 15:00 UTC


191140Z 1911/2015 25009KT 9999 FEW040 SCT120 QNH2991INS
TEMPO 1918/1921 19015G25KT 8000 -TSRA BKN030CB
BECMG 1920/1921 VRB06KT 9999 SCT050 QNH2991INS TX34/1918Z TN26/1911Z
KZDC FIR / North America



MET'MAP, your aeronautical weather chart ! - Copyright ORBIFLY December 2007 - Disclaimer

ORBIFLY MET'MAP TEAM :

Programming & Development : Alexandra Zaïnal
Concept & Development : Baudouin d'Aumeries
Co-Development & Prog : Marc-Olivier Méhu
Technical & hardware support : Manuel Goepfert

Contact : metmap@orbifly.com




SOURCES & CREDITS :

   NOAA       Earth
Advisory